sensor_id;sensor_type;location;lat;lon;timestamp;P1;durP1;ratioP1;P2;durP2;ratioP2
24521;SDS011;12680;57.804;12.190;2022-12-05T00:01:24;6.50;;;2.70;;
24521;SDS011;12680;57.804;12.190;2022-12-05T00:04:02;7.63;;;3.00;;
24521;SDS011;12680;57.804;12.190;2022-12-05T00:06:31;5.03;;;3.20;;
24521;SDS011;12680;57.804;12.190;2022-12-05T00:08:59;5.47;;;3.35;;
24521;SDS011;12680;57.804;12.190;2022-12-05T00:11:30;6.05;;;3.08;;
24521;SDS011;12680;57.804;12.190;2022-12-05T00:13:59;7.55;;;3.63;;
24521;SDS011;12680;57.804;12.190;2022-12-05T00:16:27;6.38;;;3.03;;
24521;SDS011;12680;57.804;12.190;2022-12-05T00:18:58;6.63;;;3.33;;
24521;SDS011;12680;57.804;12.190;2022-12-05T00:21:27;5.03;;;3.00;;
24521;SDS011;12680;57.804;12.190;2022-12-05T00:23:56;3.53;;;2.70;;
24521;SDS011;12680;57.804;12.190;2022-12-05T00:26:25;6.20;;;3.45;;
24521;SDS011;12680;57.804;12.190;2022-12-05T00:28:53;3.35;;;2.70;;
24521;SDS011;12680;57.804;12.190;2022-12-05T00:31:21;5.95;;;3.55;;
24521;SDS011;12680;57.804;12.190;2022-12-05T00:33:50;3.95;;;2.63;;
24521;SDS011;12680;57.804;12.190;2022-12-05T00:36:19;4.97;;;2.92;;
24521;SDS011;12680;57.804;12.190;2022-12-05T00:38:48;4.82;;;2.85;;
24521;SDS011;12680;57.804;12.190;2022-12-05T00:41:17;4.68;;;2.67;;
24521;SDS011;12680;57.804;12.190;2022-12-05T00:43:49;5.15;;;3.15;;
24521;SDS011;12680;57.804;12.190;2022-12-05T00:46:18;4.72;;;2.75;;
24521;SDS011;12680;57.804;12.190;2022-12-05T00:48:47;5.15;;;3.28;;
24521;SDS011;12680;57.804;12.190;2022-12-05T00:51:17;6.32;;;3.15;;
24521;SDS011;12680;57.804;12.190;2022-12-05T00:53:48;4.45;;;3.00;;
24521;SDS011;12680;57.804;12.190;2022-12-05T00:56:20;3.97;;;2.97;;
24521;SDS011;12680;57.804;12.190;2022-12-05T00:58:49;4.05;;;3.08;;
24521;SDS011;12680;57.804;12.190;2022-12-05T01:01:20;6.05;;;2.83;;
24521;SDS011;12680;57.804;12.190;2022-12-05T01:03:50;6.80;;;3.07;;
24521;SDS011;12680;57.804;12.190;2022-12-05T01:06:19;7.18;;;3.60;;
24521;SDS011;12680;57.804;12.190;2022-12-05T01:08:48;5.97;;;3.25;;
24521;SDS011;12680;57.804;12.190;2022-12-05T01:11:16;7.10;;;3.35;;
24521;SDS011;12680;57.804;12.190;2022-12-05T01:13:44;6.28;;;3.30;;
24521;SDS011;12680;57.804;12.190;2022-12-05T01:16:13;5.22;;;3.03;;
24521;SDS011;12680;57.804;12.190;2022-12-05T01:18:52;5.57;;;3.13;;
24521;SDS011;12680;57.804;12.190;2022-12-05T01:21:20;4.38;;;2.75;;
24521;SDS011;12680;57.804;12.190;2022-12-05T01:23:47;5.10;;;3.03;;
24521;SDS011;12680;57.804;12.190;2022-12-05T01:26:15;6.63;;;3.22;;
24521;SDS011;12680;57.804;12.190;2022-12-05T01:28:43;6.07;;;3.00;;
24521;SDS011;12680;57.804;12.190;2022-12-05T01:31:28;5.88;;;3.10;;
24521;SDS011;12680;57.804;12.190;2022-12-05T01:33:58;8.07;;;3.35;;
24521;SDS011;12680;57.804;12.190;2022-12-05T01:36:27;5.38;;;2.95;;
24521;SDS011;12680;57.804;12.190;2022-12-05T01:38:55;5.13;;;3.08;;
24521;SDS011;12680;57.804;12.190;2022-12-05T01:41:24;5.80;;;3.05;;
24521;SDS011;12680;57.804;12.190;2022-12-05T01:44:01;3.85;;;2.35;;
24521;SDS011;12680;57.804;12.190;2022-12-05T01:46:39;5.80;;;2.60;;
24521;SDS011;12680;57.804;12.190;2022-12-05T01:49:22;6.35;;;2.95;;
24521;SDS011;12680;57.804;12.190;2022-12-05T01:52:16;5.15;;;3.35;;
24521;SDS011;12680;57.804;12.190;2022-12-05T01:54:49;5.32;;;2.95;;
24521;SDS011;12680;57.804;12.190;2022-12-05T01:57:19;7.88;;;3.38;;
24521;SDS011;12680;57.804;12.190;2022-12-05T01:59:49;5.82;;;3.40;;
24521;SDS011;12680;57.804;12.190;2022-12-05T02:02:21;5.35;;;3.42;;
24521;SDS011;12680;57.804;12.190;2022-12-05T02:04:56;4.60;;;3.08;;
24521;SDS011;12680;57.804;12.190;2022-12-05T02:07:27;4.85;;;2.80;;
24521;SDS011;12680;57.804;12.190;2022-12-05T02:09:56;5.88;;;2.88;;
24521;SDS011;12680;57.804;12.190;2022-12-05T02:12:23;4.60;;;2.72;;
24521;SDS011;12680;57.804;12.190;2022-12-05T02:31:55;6.05;;;3.63;;
24521;SDS011;12680;57.804;12.190;2022-12-05T02:35:41;5.60;;;3.25;;
24521;SDS011;12680;57.804;12.190;2022-12-05T02:38:01;6.85;;;4.00;;
24521;SDS011;12680;57.804;12.190;2022-12-05T02:43:18;6.07;;;3.60;;
24521;SDS011;12680;57.804;12.190;2022-12-05T02:45:51;5.50;;;3.38;;
24521;SDS011;12680;57.804;12.190;2022-12-05T02:48:22;5.80;;;3.55;;
24521;SDS011;12680;57.804;12.190;2022-12-05T02:50:54;6.25;;;3.17;;
24521;SDS011;12680;57.804;12.190;2022-12-05T02:53:24;5.32;;;3.47;;
24521;SDS011;12680;57.804;12.190;2022-12-05T02:55:54;8.25;;;3.40;;
24521;SDS011;12680;57.804;12.190;2022-12-05T02:58:23;5.72;;;3.42;;
24521;SDS011;12680;57.804;12.190;2022-12-05T03:00:58;5.93;;;3.30;;
24521;SDS011;12680;57.804;12.190;2022-12-05T03:03:26;5.63;;;3.13;;
24521;SDS011;12680;57.804;12.190;2022-12-05T03:06:12;4.68;;;2.95;;
24521;SDS011;12680;57.804;12.190;2022-12-05T03:08:47;6.10;;;3.42;;
24521;SDS011;12680;57.804;12.190;2022-12-05T03:11:19;5.72;;;3.28;;
24521;SDS011;12680;57.804;12.190;2022-12-05T03:13:48;5.18;;;3.03;;
24521;SDS011;12680;57.804;12.190;2022-12-05T03:16:27;6.70;;;3.45;;
24521;SDS011;12680;57.804;12.190;2022-12-05T03:19:02;10.60;;;3.35;;
24521;SDS011;12680;57.804;12.190;2022-12-05T03:21:58;5.82;;;3.40;;
24521;SDS011;12680;57.804;12.190;2022-12-05T03:24:34;6.93;;;3.13;;
24521;SDS011;12680;57.804;12.190;2022-12-05T03:30:00;4.95;;;3.13;;
24521;SDS011;12680;57.804;12.190;2022-12-05T03:32:41;4.05;;;2.95;;
24521;SDS011;12680;57.804;12.190;2022-12-05T03:38:10;5.30;;;3.58;;
24521;SDS011;12680;57.804;12.190;2022-12-05T03:40:46;5.10;;;3.40;;
24521;SDS011;12680;57.804;12.190;2022-12-05T03:46:22;6.05;;;3.70;;
24521;SDS011;12680;57.804;12.190;2022-12-05T03:49:50;5.47;;;3.10;;
24521;SDS011;12680;57.804;12.190;2022-12-05T03:52:14;6.53;;;3.63;;
24521;SDS011;12680;57.804;12.190;2022-12-05T03:54:48;5.90;;;4.32;;
24521;SDS011;12680;57.804;12.190;2022-12-05T03:57:26;7.30;;;3.78;;
24521;SDS011;12680;57.804;12.190;2022-12-05T04:02:31;5.00;;;3.45;;
24521;SDS011;12680;57.804;12.190;2022-12-05T04:05:20;5.65;;;3.20;;
24521;SDS011;12680;57.804;12.190;2022-12-05T04:10:48;6.68;;;3.10;;
24521;SDS011;12680;57.804;12.190;2022-12-05T04:13:22;4.82;;;3.15;;
24521;SDS011;12680;57.804;12.190;2022-12-05T04:15:55;4.82;;;3.22;;
24521;SDS011;12680;57.804;12.190;2022-12-05T04:18:46;3.63;;;2.95;;
24521;SDS011;12680;57.804;12.190;2022-12-05T04:21:20;4.72;;;3.15;;
24521;SDS011;12680;57.804;12.190;2022-12-05T04:24:18;4.68;;;3.20;;
24521;SDS011;12680;57.804;12.190;2022-12-05T04:30:23;6.90;;;3.40;;
24521;SDS011;12680;57.804;12.190;2022-12-05T04:33:07;4.95;;;3.20;;
24521;SDS011;12680;57.804;12.190;2022-12-05T04:35:45;6.47;;;3.47;;
24521;SDS011;12680;57.804;12.190;2022-12-05T04:38:22;6.18;;;2.95;;
24521;SDS011;12680;57.804;12.190;2022-12-05T04:41:06;4.75;;;3.20;;
24521;SDS011;12680;57.804;12.190;2022-12-05T04:43:41;5.00;;;3.22;;
24521;SDS011;12680;57.804;12.190;2022-12-05T04:46:12;4.68;;;2.70;;
24521;SDS011;12680;57.804;12.190;2022-12-05T04:48:42;6.13;;;3.35;;
24521;SDS011;12680;57.804;12.190;2022-12-05T04:51:15;4.72;;;3.03;;
24521;SDS011;12680;57.804;12.190;2022-12-05T04:53:46;6.53;;;4.85;;
24521;SDS011;12680;57.804;12.190;2022-12-05T04:56:19;5.35;;;3.10;;
24521;SDS011;12680;57.804;12.190;2022-12-05T04:58:47;5.25;;;3.45;;
24521;SDS011;12680;57.804;12.190;2022-12-05T05:04:06;7.10;;;3.28;;
24521;SDS011;12680;57.804;12.190;2022-12-05T05:06:43;8.60;;;3.75;;
24521;SDS011;12680;57.804;12.190;2022-12-05T05:09:10;7.55;;;3.65;;
24521;SDS011;12680;57.804;12.190;2022-12-05T05:11:38;6.03;;;3.05;;
24521;SDS011;12680;57.804;12.190;2022-12-05T05:14:05;5.50;;;3.50;;
24521;SDS011;12680;57.804;12.190;2022-12-05T05:16:36;7.88;;;3.78;;
24521;SDS011;12680;57.804;12.190;2022-12-05T05:19:05;3.95;;;2.92;;
24521;SDS011;12680;57.804;12.190;2022-12-05T05:21:35;6.22;;;3.10;;
24521;SDS011;12680;57.804;12.190;2022-12-05T05:24:04;3.35;;;2.63;;
24521;SDS011;12680;57.804;12.190;2022-12-05T05:26:33;5.55;;;3.35;;
24521;SDS011;12680;57.804;12.190;2022-12-05T05:29:01;4.28;;;2.85;;
24521;SDS011;12680;57.804;12.190;2022-12-05T05:31:29;4.05;;;2.55;;
24521;SDS011;12680;57.804;12.190;2022-12-05T05:33:56;6.68;;;3.50;;
24521;SDS011;12680;57.804;12.190;2022-12-05T05:36:31;4.38;;;2.78;;
24521;SDS011;12680;57.804;12.190;2022-12-05T05:38:59;4.72;;;3.13;;
24521;SDS011;12680;57.804;12.190;2022-12-05T05:41:28;6.07;;;3.15;;
24521;SDS011;12680;57.804;12.190;2022-12-05T05:43:57;3.80;;;2.53;;
24521;SDS011;12680;57.804;12.190;2022-12-05T05:46:26;6.70;;;3.30;;
24521;SDS011;12680;57.804;12.190;2022-12-05T05:48:55;4.57;;;2.88;;
24521;SDS011;12680;57.804;12.190;2022-12-05T05:51:22;4.05;;;2.75;;
24521;SDS011;12680;57.804;12.190;2022-12-05T05:53:55;5.40;;;2.65;;
24521;SDS011;12680;57.804;12.190;2022-12-05T05:56:23;6.05;;;2.95;;
24521;SDS011;12680;57.804;12.190;2022-12-05T05:58:57;5.00;;;2.95;;
24521;SDS011;12680;57.804;12.190;2022-12-05T06:01:27;3.92;;;2.80;;
24521;SDS011;12680;57.804;12.190;2022-12-05T06:03:55;5.25;;;2.90;;
24521;SDS011;12680;57.804;12.190;2022-12-05T06:06:23;5.93;;;2.78;;
24521;SDS011;12680;57.804;12.190;2022-12-05T06:08:51;7.15;;;2.97;;
24521;SDS011;12680;57.804;12.190;2022-12-05T06:11:23;4.53;;;3.00;;
24521;SDS011;12680;57.804;12.190;2022-12-05T06:13:56;5.97;;;3.10;;
24521;SDS011;12680;57.804;12.190;2022-12-05T06:16:26;6.05;;;3.65;;
24521;SDS011;12680;57.804;12.190;2022-12-05T06:18:55;7.93;;;3.67;;
24521;SDS011;12680;57.804;12.190;2022-12-05T06:21:23;5.47;;;3.10;;
24521;SDS011;12680;57.804;12.190;2022-12-05T06:23:50;7.07;;;3.58;;
24521;SDS011;12680;57.804;12.190;2022-12-05T06:26:20;5.38;;;2.67;;
24521;SDS011;12680;57.804;12.190;2022-12-05T06:28:47;4.13;;;2.85;;
24521;SDS011;12680;57.804;12.190;2022-12-05T06:31:16;3.30;;;2.30;;
24521;SDS011;12680;57.804;12.190;2022-12-05T06:33:45;6.03;;;2.83;;
24521;SDS011;12680;57.804;12.190;2022-12-05T06:36:13;2.80;;;2.33;;
24521;SDS011;12680;57.804;12.190;2022-12-05T06:38:42;4.93;;;2.88;;
24521;SDS011;12680;57.804;12.190;2022-12-05T06:41:13;3.60;;;2.70;;
24521;SDS011;12680;57.804;12.190;2022-12-05T06:43:43;4.85;;;2.90;;
24521;SDS011;12680;57.804;12.190;2022-12-05T06:46:11;5.43;;;3.10;;
24521;SDS011;12680;57.804;12.190;2022-12-05T06:48:39;4.63;;;2.92;;
24521;SDS011;12680;57.804;12.190;2022-12-05T06:51:10;4.40;;;2.70;;
24521;SDS011;12680;57.804;12.190;2022-12-05T06:53:39;4.53;;;3.00;;
24521;SDS011;12680;57.804;12.190;2022-12-05T06:56:11;4.85;;;2.72;;
24521;SDS011;12680;57.804;12.190;2022-12-05T06:58:41;4.80;;;2.90;;
24521;SDS011;12680;57.804;12.190;2022-12-05T07:01:14;3.30;;;2.65;;
24521;SDS011;12680;57.804;12.190;2022-12-05T07:04:11;4.47;;;2.67;;
24521;SDS011;12680;57.804;12.190;2022-12-05T07:06:42;3.45;;;2.60;;
24521;SDS011;12680;57.804;12.190;2022-12-05T07:09:15;4.05;;;2.75;;
24521;SDS011;12680;57.804;12.190;2022-12-05T07:11:47;3.88;;;2.80;;
24521;SDS011;12680;57.804;12.190;2022-12-05T07:14:15;6.10;;;2.90;;
24521;SDS011;12680;57.804;12.190;2022-12-05T07:17:03;7.80;;;3.00;;
24521;SDS011;12680;57.804;12.190;2022-12-05T07:19:30;5.15;;;3.00;;
24521;SDS011;12680;57.804;12.190;2022-12-05T07:21:57;8.57;;;4.05;;
24521;SDS011;12680;57.804;12.190;2022-12-05T07:24:25;14.05;;;6.35;;
24521;SDS011;12680;57.804;12.190;2022-12-05T07:26:52;36.33;;;12.05;;
24521;SDS011;12680;57.804;12.190;2022-12-05T07:29:19;16.48;;;6.97;;
24521;SDS011;12680;57.804;12.190;2022-12-05T07:31:46;13.23;;;5.82;;
24521;SDS011;12680;57.804;12.190;2022-12-05T07:34:13;11.63;;;4.88;;
24521;SDS011;12680;57.804;12.190;2022-12-05T07:36:41;18.38;;;8.77;;
24521;SDS011;12680;57.804;12.190;2022-12-05T07:39:08;16.55;;;7.50;;
24521;SDS011;12680;57.804;12.190;2022-12-05T07:41:35;15.57;;;7.68;;
24521;SDS011;12680;57.804;12.190;2022-12-05T07:44:02;20.83;;;10.02;;
24521;SDS011;12680;57.804;12.190;2022-12-05T07:46:30;8.38;;;5.05;;
24521;SDS011;12680;57.804;12.190;2022-12-05T07:48:57;6.78;;;3.70;;
24521;SDS011;12680;57.804;12.190;2022-12-05T07:51:24;6.35;;;3.00;;
24521;SDS011;12680;57.804;12.190;2022-12-05T07:53:51;5.60;;;3.08;;
24521;SDS011;12680;57.804;12.190;2022-12-05T07:56:18;6.22;;;3.33;;
24521;SDS011;12680;57.804;12.190;2022-12-05T07:58:47;8.68;;;3.20;;
24521;SDS011;12680;57.804;12.190;2022-12-05T08:01:25;3.95;;;3.03;;
24521;SDS011;12680;57.804;12.190;2022-12-05T08:03:54;4.88;;;2.85;;
24521;SDS011;12680;57.804;12.190;2022-12-05T08:06:27;4.78;;;2.92;;
24521;SDS011;12680;57.804;12.190;2022-12-05T08:08:56;4.05;;;3.00;;
24521;SDS011;12680;57.804;12.190;2022-12-05T08:11:27;3.97;;;3.05;;
24521;SDS011;12680;57.804;12.190;2022-12-05T08:13:57;3.95;;;2.83;;
24521;SDS011;12680;57.804;12.190;2022-12-05T08:16:26;4.35;;;2.83;;
24521;SDS011;12680;57.804;12.190;2022-12-05T08:18:58;5.60;;;3.00;;
24521;SDS011;12680;57.804;12.190;2022-12-05T08:21:26;4.85;;;3.38;;
24521;SDS011;12680;57.804;12.190;2022-12-05T08:23:54;5.45;;;3.40;;
24521;SDS011;12680;57.804;12.190;2022-12-05T08:26:22;6.47;;;3.20;;
24521;SDS011;12680;57.804;12.190;2022-12-05T08:28:52;8.70;;;3.15;;
24521;SDS011;12680;57.804;12.190;2022-12-05T08:31:22;4.93;;;3.17;;
24521;SDS011;12680;57.804;12.190;2022-12-05T08:33:50;4.40;;;2.75;;
24521;SDS011;12680;57.804;12.190;2022-12-05T08:36:24;5.72;;;2.75;;
24521;SDS011;12680;57.804;12.190;2022-12-05T08:38:56;4.93;;;2.80;;
24521;SDS011;12680;57.804;12.190;2022-12-05T08:41:25;5.80;;;2.80;;
24521;SDS011;12680;57.804;12.190;2022-12-05T08:43:56;2.33;;;1.90;;
24521;SDS011;12680;57.804;12.190;2022-12-05T08:46:31;5.57;;;2.63;;
24521;SDS011;12680;57.804;12.190;2022-12-05T08:49:00;5.18;;;2.85;;
24521;SDS011;12680;57.804;12.190;2022-12-05T08:51:27;3.83;;;2.70;;
24521;SDS011;12680;57.804;12.190;2022-12-05T08:53:54;6.72;;;2.90;;
24521;SDS011;12680;57.804;12.190;2022-12-05T08:56:22;6.25;;;3.22;;
24521;SDS011;12680;57.804;12.190;2022-12-05T08:58:52;5.82;;;3.10;;
24521;SDS011;12680;57.804;12.190;2022-12-05T09:01:29;5.72;;;2.90;;
24521;SDS011;12680;57.804;12.190;2022-12-05T09:03:59;5.47;;;3.17;;
24521;SDS011;12680;57.804;12.190;2022-12-05T09:06:28;6.07;;;3.22;;
24521;SDS011;12680;57.804;12.190;2022-12-05T09:08:56;4.38;;;2.45;;
24521;SDS011;12680;57.804;12.190;2022-12-05T09:11:31;7.53;;;3.60;;
24521;SDS011;12680;57.804;12.190;2022-12-05T09:14:00;4.78;;;3.08;;
24521;SDS011;12680;57.804;12.190;2022-12-05T09:16:29;4.50;;;2.65;;
24521;SDS011;12680;57.804;12.190;2022-12-05T09:19:03;4.57;;;2.88;;
24521;SDS011;12680;57.804;12.190;2022-12-05T09:21:30;5.20;;;3.20;;
24521;SDS011;12680;57.804;12.190;2022-12-05T09:23:58;5.05;;;3.13;;
24521;SDS011;12680;57.804;12.190;2022-12-05T09:26:26;6.47;;;3.03;;
24521;SDS011;12680;57.804;12.190;2022-12-05T09:28:54;6.20;;;3.28;;
24521;SDS011;12680;57.804;12.190;2022-12-05T09:31:22;3.58;;;2.40;;
24521;SDS011;12680;57.804;12.190;2022-12-05T09:33:52;5.05;;;2.95;;
24521;SDS011;12680;57.804;12.190;2022-12-05T09:36:20;4.75;;;2.95;;
24521;SDS011;12680;57.804;12.190;2022-12-05T09:38:49;5.57;;;3.60;;
24521;SDS011;12680;57.804;12.190;2022-12-05T10:06:37;4.93;;;2.75;;
24521;SDS011;12680;57.804;12.190;2022-12-05T10:09:13;4.78;;;3.08;;
24521;SDS011;12680;57.804;12.190;2022-12-05T10:11:57;5.03;;;2.95;;
24521;SDS011;12680;57.804;12.190;2022-12-05T10:14:54;4.55;;;2.80;;
24521;SDS011;12680;57.804;12.190;2022-12-05T10:17:36;6.05;;;3.20;;
24521;SDS011;12680;57.804;12.190;2022-12-05T10:20:10;5.18;;;2.90;;
24521;SDS011;12680;57.804;12.190;2022-12-05T10:22:46;10.02;;;3.05;;
24521;SDS011;12680;57.804;12.190;2022-12-05T10:25:32;5.18;;;3.13;;
24521;SDS011;12680;57.804;12.190;2022-12-05T10:28:03;4.07;;;2.95;;
24521;SDS011;12680;57.804;12.190;2022-12-05T10:30:38;3.95;;;2.75;;
24521;SDS011;12680;57.804;12.190;2022-12-05T10:33:12;4.45;;;3.10;;
24521;SDS011;12680;57.804;12.190;2022-12-05T10:35:43;4.93;;;3.00;;
24521;SDS011;12680;57.804;12.190;2022-12-05T10:38:13;3.63;;;2.58;;
24521;SDS011;12680;57.804;12.190;2022-12-05T10:40:44;4.80;;;2.97;;
24521;SDS011;12680;57.804;12.190;2022-12-05T10:43:15;7.10;;;2.75;;
24521;SDS011;12680;57.804;12.190;2022-12-05T10:45:50;8.80;;;2.97;;
24521;SDS011;12680;57.804;12.190;2022-12-05T10:48:18;4.47;;;2.90;;
24521;SDS011;12680;57.804;12.190;2022-12-05T10:50:48;4.07;;;2.60;;
24521;SDS011;12680;57.804;12.190;2022-12-05T10:53:23;4.70;;;2.70;;
24521;SDS011;12680;57.804;12.190;2022-12-05T10:55:52;6.15;;;2.92;;
24521;SDS011;12680;57.804;12.190;2022-12-05T10:58:41;5.68;;;2.85;;
24521;SDS011;12680;57.804;12.190;2022-12-05T11:01:22;6.47;;;2.92;;
24521;SDS011;12680;57.804;12.190;2022-12-05T11:03:55;7.38;;;2.95;;
24521;SDS011;12680;57.804;12.190;2022-12-05T11:06:26;5.22;;;3.00;;
24521;SDS011;12680;57.804;12.190;2022-12-05T11:09:01;5.78;;;2.85;;
24521;SDS011;12680;57.804;12.190;2022-12-05T11:11:38;6.22;;;3.53;;
24521;SDS011;12680;57.804;12.190;2022-12-05T11:14:06;7.45;;;3.22;;
24521;SDS011;12680;57.804;12.190;2022-12-05T11:16:51;4.28;;;3.00;;
24521;SDS011;12680;57.804;12.190;2022-12-05T11:21:48;5.22;;;3.50;;
24521;SDS011;12680;57.804;12.190;2022-12-05T11:26:48;6.95;;;3.67;;
24521;SDS011;12680;57.804;12.190;2022-12-05T11:32:20;5.70;;;2.97;;
24521;SDS011;12680;57.804;12.190;2022-12-05T11:34:51;3.67;;;2.58;;
24521;SDS011;12680;57.804;12.190;2022-12-05T11:37:31;8.57;;;3.40;;
24521;SDS011;12680;57.804;12.190;2022-12-05T11:40:17;4.78;;;2.80;;
24521;SDS011;12680;57.804;12.190;2022-12-05T11:50:49;5.20;;;2.88;;
24521;SDS011;12680;57.804;12.190;2022-12-05T11:56:56;6.07;;;2.90;;
24521;SDS011;12680;57.804;12.190;2022-12-05T11:59:33;5.55;;;3.30;;
24521;SDS011;12680;57.804;12.190;2022-12-05T12:12:54;5.13;;;2.38;;
24521;SDS011;12680;57.804;12.190;2022-12-05T12:21:17;7.72;;;2.55;;
24521;SDS011;12680;57.804;12.190;2022-12-05T12:40:27;4.38;;;2.88;;
24521;SDS011;12680;57.804;12.190;2022-12-05T12:45:36;5.07;;;2.92;;
24521;SDS011;12680;57.804;12.190;2022-12-05T12:51:19;4.63;;;2.70;;
24521;SDS011;12680;57.804;12.190;2022-12-05T13:03:38;5.53;;;2.92;;
24521;SDS011;12680;57.804;12.190;2022-12-05T13:06:22;3.90;;;2.60;;
24521;SDS011;12680;57.804;12.190;2022-12-05T13:08:58;4.85;;;2.60;;
24521;SDS011;12680;57.804;12.190;2022-12-05T13:14:14;5.20;;;2.45;;
24521;SDS011;12680;57.804;12.190;2022-12-05T13:16:45;8.02;;;2.85;;
24521;SDS011;12680;57.804;12.190;2022-12-05T13:22:11;6.07;;;3.13;;
24521;SDS011;12680;57.804;12.190;2022-12-05T13:24:40;5.30;;;2.80;;
24521;SDS011;12680;57.804;12.190;2022-12-05T13:27:12;5.53;;;2.80;;
24521;SDS011;12680;57.804;12.190;2022-12-05T13:29:52;6.55;;;2.58;;
24521;SDS011;12680;57.804;12.190;2022-12-05T13:32:30;7.35;;;3.08;;
24521;SDS011;12680;57.804;12.190;2022-12-05T13:35:07;3.20;;;2.42;;
24521;SDS011;12680;57.804;12.190;2022-12-05T13:37:36;4.43;;;3.20;;
24521;SDS011;12680;57.804;12.190;2022-12-05T13:40:34;8.95;;;2.72;;
24521;SDS011;12680;57.804;12.190;2022-12-05T13:43:24;6.95;;;3.05;;
24521;SDS011;12680;57.804;12.190;2022-12-05T13:46:02;4.72;;;2.80;;
24521;SDS011;12680;57.804;12.190;2022-12-05T13:48:32;3.60;;;2.42;;
24521;SDS011;12680;57.804;12.190;2022-12-05T13:51:06;5.03;;;2.70;;
24521;SDS011;12680;57.804;12.190;2022-12-05T13:53:41;3.85;;;2.67;;
24521;SDS011;12680;57.804;12.190;2022-12-05T13:58:42;7.05;;;2.70;;
24521;SDS011;12680;57.804;12.190;2022-12-05T14:03:56;4.05;;;2.47;;
24521;SDS011;12680;57.804;12.190;2022-12-05T14:09:12;6.07;;;2.78;;
24521;SDS011;12680;57.804;12.190;2022-12-05T14:15:01;3.40;;;2.33;;
24521;SDS011;12680;57.804;12.190;2022-12-05T14:17:28;4.45;;;2.70;;
24521;SDS011;12680;57.804;12.190;2022-12-05T14:20:06;5.07;;;2.67;;
24521;SDS011;12680;57.804;12.190;2022-12-05T14:39:43;4.22;;;2.63;;
24521;SDS011;12680;57.804;12.190;2022-12-05T14:45:03;5.78;;;2.90;;
24521;SDS011;12680;57.804;12.190;2022-12-05T14:47:52;5.13;;;3.17;;
24521;SDS011;12680;57.804;12.190;2022-12-05T14:55:55;5.18;;;3.17;;
24521;SDS011;12680;57.804;12.190;2022-12-05T14:58:43;6.18;;;3.00;;
24521;SDS011;12680;57.804;12.190;2022-12-05T15:01:26;9.18;;;3.25;;
24521;SDS011;12680;57.804;12.190;2022-12-05T15:12:03;4.32;;;2.85;;
24521;SDS011;12680;57.804;12.190;2022-12-05T15:14:40;4.03;;;2.60;;
24521;SDS011;12680;57.804;12.190;2022-12-05T15:17:14;5.80;;;3.03;;
24521;SDS011;12680;57.804;12.190;2022-12-05T15:19:58;5.75;;;3.22;;
24521;SDS011;12680;57.804;12.190;2022-12-05T15:22:34;5.38;;;3.05;;
24521;SDS011;12680;57.804;12.190;2022-12-05T15:28:03;3.78;;;2.80;;
24521;SDS011;12680;57.804;12.190;2022-12-05T15:30:32;6.18;;;3.40;;
24521;SDS011;12680;57.804;12.190;2022-12-05T15:35:31;5.40;;;3.00;;
24521;SDS011;12680;57.804;12.190;2022-12-05T15:38:01;11.18;;;3.88;;
24521;SDS011;12680;57.804;12.190;2022-12-05T15:40:43;5.57;;;3.08;;
24521;SDS011;12680;57.804;12.190;2022-12-05T15:43:26;5.05;;;3.17;;
24521;SDS011;12680;57.804;12.190;2022-12-05T15:46:06;4.90;;;3.17;;
24521;SDS011;12680;57.804;12.190;2022-12-05T15:49:14;5.90;;;3.25;;
24521;SDS011;12680;57.804;12.190;2022-12-05T15:51:49;6.75;;;2.85;;
24521;SDS011;12680;57.804;12.190;2022-12-05T15:54:31;7.25;;;3.47;;
24521;SDS011;12680;57.804;12.190;2022-12-05T15:57:25;5.60;;;3.20;;
24521;SDS011;12680;57.804;12.190;2022-12-05T16:00:05;6.70;;;3.70;;
24521;SDS011;12680;57.804;12.190;2022-12-05T16:02:44;6.18;;;3.63;;
24521;SDS011;12680;57.804;12.190;2022-12-05T16:08:00;10.73;;;4.68;;
24521;SDS011;12680;57.804;12.190;2022-12-05T16:10:29;6.00;;;3.40;;
24521;SDS011;12680;57.804;12.190;2022-12-05T16:13:01;5.78;;;3.45;;
24521;SDS011;12680;57.804;12.190;2022-12-05T16:15:33;4.05;;;2.88;;
24521;SDS011;12680;57.804;12.190;2022-12-05T16:18:01;4.60;;;2.85;;
24521;SDS011;12680;57.804;12.190;2022-12-05T16:20:33;9.85;;;3.85;;
24521;SDS011;12680;57.804;12.190;2022-12-05T16:23:03;7.05;;;3.60;;
24521;SDS011;12680;57.804;12.190;2022-12-05T16:25:51;5.95;;;3.00;;
24521;SDS011;12680;57.804;12.190;2022-12-05T16:28:20;5.28;;;3.10;;
24521;SDS011;12680;57.804;12.190;2022-12-05T16:30:58;5.15;;;3.17;;
24521;SDS011;12680;57.804;12.190;2022-12-05T16:33:28;6.40;;;3.92;;
24521;SDS011;12680;57.804;12.190;2022-12-05T16:36:05;4.90;;;3.38;;
24521;SDS011;12680;57.804;12.190;2022-12-05T16:38:37;7.55;;;4.25;;
24521;SDS011;12680;57.804;12.190;2022-12-05T16:41:06;7.22;;;4.05;;
24521;SDS011;12680;57.804;12.190;2022-12-05T16:48:45;4.60;;;2.90;;
24521;SDS011;12680;57.804;12.190;2022-12-05T16:58:49;4.60;;;2.88;;
24521;SDS011;12680;57.804;12.190;2022-12-05T17:01:18;16.88;;;7.47;;
24521;SDS011;12680;57.804;12.190;2022-12-05T17:03:50;5.72;;;3.83;;
24521;SDS011;12680;57.804;12.190;2022-12-05T17:06:19;5.97;;;3.83;;
24521;SDS011;12680;57.804;12.190;2022-12-05T17:08:49;5.20;;;3.63;;
24521;SDS011;12680;57.804;12.190;2022-12-05T17:11:18;7.35;;;3.85;;
24521;SDS011;12680;57.804;12.190;2022-12-05T17:13:54;6.03;;;3.50;;
24521;SDS011;12680;57.804;12.190;2022-12-05T17:16:22;4.75;;;3.03;;
24521;SDS011;12680;57.804;12.190;2022-12-05T17:18:52;5.22;;;3.15;;
24521;SDS011;12680;57.804;12.190;2022-12-05T17:21:29;5.60;;;3.42;;
24521;SDS011;12680;57.804;12.190;2022-12-05T17:23:59;6.15;;;3.47;;
24521;SDS011;12680;57.804;12.190;2022-12-05T17:26:26;7.03;;;3.58;;
24521;SDS011;12680;57.804;12.190;2022-12-05T17:28:53;4.38;;;2.42;;
24521;SDS011;12680;57.804;12.190;2022-12-05T17:31:21;4.90;;;2.85;;
24521;SDS011;12680;57.804;12.190;2022-12-05T17:33:50;4.10;;;2.63;;
24521;SDS011;12680;57.804;12.190;2022-12-05T17:36:19;4.95;;;2.78;;
24521;SDS011;12680;57.804;12.190;2022-12-05T17:38:46;5.82;;;3.08;;
24521;SDS011;12680;57.804;12.190;2022-12-05T17:41:18;4.95;;;3.03;;
24521;SDS011;12680;57.804;12.190;2022-12-05T17:43:47;6.10;;;3.03;;
24521;SDS011;12680;57.804;12.190;2022-12-05T17:46:16;8.73;;;3.83;;
24521;SDS011;12680;57.804;12.190;2022-12-05T17:48:45;19.63;;;7.93;;
24521;SDS011;12680;57.804;12.190;2022-12-05T17:51:15;16.00;;;5.18;;
24521;SDS011;12680;57.804;12.190;2022-12-05T17:53:43;11.43;;;3.80;;
24521;SDS011;12680;57.804;12.190;2022-12-05T17:56:11;10.55;;;4.90;;
24521;SDS011;12680;57.804;12.190;2022-12-05T17:58:38;6.70;;;3.55;;
24521;SDS011;12680;57.804;12.190;2022-12-05T18:01:08;10.25;;;4.28;;
24521;SDS011;12680;57.804;12.190;2022-12-05T18:03:39;5.05;;;3.20;;
24521;SDS011;12680;57.804;12.190;2022-12-05T18:06:06;6.20;;;3.70;;
24521;SDS011;12680;57.804;12.190;2022-12-05T18:08:34;5.05;;;3.50;;
24521;SDS011;12680;57.804;12.190;2022-12-05T18:11:05;4.43;;;3.00;;
24521;SDS011;12680;57.804;12.190;2022-12-05T18:13:32;7.20;;;4.25;;
24521;SDS011;12680;57.804;12.190;2022-12-05T18:15:59;9.52;;;6.07;;
24521;SDS011;12680;57.804;12.190;2022-12-05T18:18:27;6.50;;;3.65;;
24521;SDS011;12680;57.804;12.190;2022-12-05T18:21:04;6.43;;;3.03;;
24521;SDS011;12680;57.804;12.190;2022-12-05T18:23:33;4.22;;;2.40;;
24521;SDS011;12680;57.804;12.190;2022-12-05T18:26:01;4.50;;;3.20;;
24521;SDS011;12680;57.804;12.190;2022-12-05T18:28:29;6.40;;;5.65;;
24521;SDS011;12680;57.804;12.190;2022-12-05T18:31:03;4.80;;;3.15;;